FAKN

Kruger Mpumalanga International Airport

Mpumalanga, South Africa
METAR FAKN 201400Z 10006KT 9999 BKN020 18/10 Q1028 NOSIG
Observed Flight Rules
Jul-20 @ 14:00 UTC (27 minutes ago) Marginal Visual Flight Rules
Wind Visibility Clouds
100° at 6 knots 10,000+ meters
  • Broken at 2,000' AGL
Temperatures Readings
Current 18°C / 64°F
Dewpoint 10°C / 50°F
Humidity 60%
Altimeter 30.35" Hg
Pressure 1028 hPa
Elevation 862
METAR FAKN 201400Z 10006KT 9999 BKN020 18/10 Q1028 NOSIG
Observed Flight Rules
Jul-20 @ 14:00 UTC
(27 minutes ago)
MVFR
Wind Visibility
100° at 6 knots 10,000+ meters
Clouds
  • Broken at 2,000' AGL
Temperature Dewpoint
18°C / 64°F 10°C / 50°F
Humidity Altimeter Pressure
60% 30.35" Hg 1028 hPa